Time;durP1;ratioP1;P1;durP2;ratioP2;P2;SDS_P1;SDS_P2;PMS_P1;PMS_P2;Temp;Humidity;BMP_temperature;BMP_pressure;BME280_temperature;BME280_humidity;BME280_pressure;Samples;Min_cycle;Max_cycle;Signal;HPM_P1;HPM_P2
2023/04/18 00:01:45;;;;;;;17.30;11.32;;;;;;;8.60;100.00;100087.53;5008009;28;20061;-74
2023/04/18 00:04:12;;;;;;;15.27;11.35;;;;;;;7.81;100.00;99950.47;5011536;28;20057;-74
2023/04/18 00:06:37;;;;;;;17.48;12.70;;;;;;;8.07;100.00;99983.66;5024088;28;20513;-74
2023/04/18 00:09:03;;;;;;;19.63;12.52;;;;;;;8.60;100.00;100082.31;5011233;28;20026;-74
2023/04/18 00:11:29;;;;;;;18.15;12.02;;;;;;;8.60;100.00;100096.25;5007256;28;20038;-74
2023/04/18 00:13:58;;;;;;;17.70;12.30;;;;;;;8.41;100.00;100076.16;5007541;28;20046;-72
2023/04/18 00:16:24;;;;;;;17.70;11.35;;;;;;;7.71;100.00;99987.88;5011223;28;20060;-75
2023/04/18 00:18:51;;;;;;;17.40;12.30;;;;;;;8.17;100.00;100082.09;5010910;28;20042;-74
2023/04/18 00:21:16;;;;;;;12.75;10.23;;;;;;;7.95;100.00;100071.56;4997535;28;20915;-74
2023/04/18 00:23:42;;;;;;;24.17;12.55;;;;;;;7.57;100.00;99970.38;5011256;28;20069;-74
2023/04/18 00:26:08;;;;;;;18.45;12.60;;;;;;;8.17;100.00;100043.81;5009241;28;20046;-74
2023/04/18 00:28:33;;;;;;;15.20;12.25;;;;;;;7.40;100.00;99906.81;5011094;28;20046;-73
2023/04/18 00:30:59;;;;;;;16.05;12.10;;;;;;;7.42;100.00;99932.88;5010919;28;20136;-73
2023/04/18 00:33:24;;;;;;;22.35;13.00;;;;;;;8.27;100.00;100062.13;5010725;28;20052;-73
2023/04/18 00:35:50;;;;;;;18.02;11.80;;;;;;;8.16;100.00;100030.72;5010416;28;20172;-73
2023/04/18 00:38:15;;;;;;;16.25;11.43;;;;;;;7.48;100.00;99922.50;5011116;28;20040;-73
2023/04/18 00:40:41;;;;;;;12.77;10.15;;;;;;;7.42;100.00;99945.94;5010281;28;20092;-73
2023/04/18 00:43:07;;;;;;;17.17;10.32;;;;;;;7.98;100.00;100042.84;5010629;28;20038;-74
2023/04/18 00:45:32;;;;;;;21.02;11.57;;;;;;;7.47;100.00;99973.84;5010511;28;20588;-72
2023/04/18 00:47:58;;;;;;;16.50;11.02;;;;;;;7.31;100.00;99938.94;5010315;28;20029;-73
2023/04/18 00:50:23;;;;;;;19.15;10.80;;;;;;;7.63;100.00;99951.25;5000831;28;20026;-74
2023/04/18 00:52:50;;;;;;;15.85;10.25;;;;;;;7.86;100.00;100068.03;5020975;28;20792;-74
2023/04/18 00:55:17;;;;;;;16.67;10.77;;;;;;;7.74;100.00;100038.34;4995150;28;20073;-74
2023/04/18 00:57:42;;;;;;;14.25;10.30;;;;;;;8.04;100.00;100061.16;5010481;28;20148;-73
2023/04/18 01:00:09;;;;;;;21.27;11.40;;;;;;;7.89;100.00;100013.19;5010487;28;20125;-73
2023/04/18 01:02:35;;;;;;;14.85;10.90;;;;;;;7.77;100.00;100053.16;5010969;28;20128;-73
2023/04/18 01:05:02;;;;;;;14.98;10.40;;;;;;;7.93;100.00;100033.22;5011699;28;20036;-73
2023/04/18 01:07:29;;;;;;;17.67;10.95;;;;;;;7.56;100.00;100028.72;5021516;28;20776;-73
2023/04/18 01:09:56;;;;;;;17.45;11.95;;;;;;;7.51;100.00;100006.91;5010044;28;20124;-73
2023/04/18 01:12:21;;;;;;;16.60;10.63;;;;;;;7.94;100.00;100046.31;5009268;28;20376;-74
2023/04/18 01:14:47;;;;;;;14.98;10.55;;;;;;;7.60;100.00;99964.31;5010500;28;20080;-74
2023/04/18 01:17:12;;;;;;;18.33;9.25;;;;;;;7.53;100.00;100002.56;5011439;28;20589;-75
2023/04/18 01:19:39;;;;;;;15.35;8.95;;;;;;;7.15;100.00;99918.84;5005717;28;20045;-72
2023/04/18 01:22:05;;;;;;;11.68;9.25;;;;;;;7.27;100.00;99904.97;5001292;28;20124;-72
2023/04/18 01:24:32;;;;;;;13.75;9.57;;;;;;;7.67;100.00;99991.31;5009872;28;20121;-74
2023/04/18 01:26:57;;;;;;;14.23;9.95;;;;;;;7.80;100.00;100042.75;5009922;28;20037;-73
2023/04/18 01:29:26;;;;;;;14.68;10.32;;;;;;;7.06;100.00;99919.66;5008993;28;20414;-73
2023/04/18 01:31:52;;;;;;;16.10;10.02;;;;;;;7.97;100.00;100035.00;5009698;28;20042;-72
2023/04/18 01:34:18;;;;;;;17.25;10.82;;;;;;;7.77;100.00;100014.00;5009525;28;20095;-72
2023/04/18 01:36:43;;;;;;;21.05;10.35;;;;;;;8.12;100.00;100037.66;5009315;28;20418;-74
2023/04/18 01:39:09;;;;;;;16.38;10.93;;;;;;;8.02;100.00;100000.19;5009440;28;20659;-74
2023/04/18 01:41:35;;;;;;;21.80;11.25;;;;;;;7.15;100.00;99897.97;5009644;28;20076;-74
2023/04/18 01:44:01;;;;;;;17.90;10.77;;;;;;;7.74;100.00;99966.97;5009404;28;20521;-74
2023/04/18 01:46:27;;;;;;;16.80;9.52;;;;;;;7.85;100.00;100020.16;5009230;28;20501;-75
2023/04/18 01:48:52;;;;;;;21.23;10.63;;;;;;;7.91;100.00;100050.63;5007700;28;20132;-74
2023/04/18 01:51:18;;;;;;;16.33;9.93;;;;;;;7.22;100.00;99914.53;4994223;28;20112;-74
2023/04/18 01:53:43;;;;;;;16.65;9.40;;;;;;;7.74;100.00;100017.47;5009562;28;20041;-75
2023/04/18 01:56:09;;;;;;;16.05;10.40;;;;;;;7.01;100.00;99920.50;5009007;28;20034;-75
2023/04/18 01:58:35;;;;;;;15.13;10.30;;;;;;;8.08;100.00;100062.06;5009459;28;20085;-74
2023/04/18 02:01:01;;;;;;;14.65;9.52;;;;;;;7.78;100.00;100055.81;5008717;28;20521;-74
2023/04/18 02:03:27;;;;;;;15.23;9.45;;;;;;;7.81;100.00;100066.25;5008949;28;20520;-74
2023/04/18 02:05:52;;;;;;;18.77;10.60;;;;;;;7.86;100.00;100041.91;5017909;28;20025;-74
2023/04/18 02:08:18;;;;;;;14.20;10.77;;;;;;;7.78;100.00;100034.03;5013682;28;20048;-74
2023/04/18 02:10:43;;;;;;;14.35;10.95;;;;;;;8.00;100.00;100056.78;5008784;28;20064;-72
2023/04/18 02:13:09;;;;;;;14.20;10.23;;;;;;;7.90;100.00;100059.34;5008741;28;20046;-71
2023/04/18 02:15:34;;;;;;;14.55;10.95;;;;;;;7.79;100.00;100007.03;5008646;28;20046;-75
2023/04/18 02:18:00;;;;;;;14.52;6.82;;;;;;;7.22;100.00;99918.00;5008925;28;20087;-72
2023/04/18 02:20:30;;;;;;;12.60;8.85;;;;;;;8.06;100.00;100061.16;4999128;28;20027;-76
2023/04/18 02:22:57;;;;;;;16.48;10.43;;;;;;;7.27;100.00;99929.34;5006954;28;20084;-75
2023/04/18 02:25:25;;;;;;;16.15;10.32;;;;;;;7.97;100.00;100069.81;5008194;28;20042;-73
2023/04/18 02:27:52;;;;;;;19.88;11.85;;;;;;;7.77;100.00;100043.63;5008628;28;20116;-75
2023/04/18 02:30:17;;;;;;;16.85;9.98;;;;;;;8.09;100.00;100058.56;5008361;28;20042;-73
2023/04/18 02:32:43;;;;;;;15.52;10.80;;;;;;;7.24;100.00;99928.47;5009115;28;20512;-73
2023/04/18 02:35:10;;;;;;;13.75;10.48;;;;;;;7.77;100.00;100055.78;5008536;28;20683;-73
2023/04/18 02:37:35;;;;;;;13.30;10.68;;;;;;;8.07;100.00;100052.44;5008489;28;20092;-73
2023/04/18 02:40:03;;;;;;;13.57;10.52;;;;;;;7.08;100.00;99923.13;5008605;28;20073;-73
2023/04/18 02:42:29;;;;;;;17.15;9.57;;;;;;;7.48;100.00;99992.97;5008412;28;20529;-73
2023/04/18 02:44:55;;;;;;;16.83;12.20;;;;;;;8.02;100.00;100048.94;5008482;28;20141;-73
2023/04/18 02:47:20;;;;;;;14.38;11.00;;;;;;;7.42;100.00;99917.22;5008689;28;20049;-74
2023/04/18 02:49:46;;;;;;;18.23;11.48;;;;;;;8.22;100.00;100047.31;5004236;28;20491;-73
2023/04/18 02:52:11;;;;;;;25.55;11.55;;;;;;;7.69;100.00;100015.72;4988750;28;22299;-73
2023/04/18 02:54:36;;;;;;;19.15;11.52;;;;;;;7.36;100.00;99950.25;4988965;28;20054;-74
2023/04/18 02:57:02;;;;;;;16.42;10.70;;;;;;;7.16;100.00;99928.41;4988809;28;20070;-73
2023/04/18 02:59:28;;;;;;;16.15;11.32;;;;;;;8.02;100.00;100047.19;4989604;28;20065;-73
2023/04/18 03:01:53;;;;;;;13.40;10.85;;;;;;;7.28;100.00;99888.44;4988902;28;20062;-73
2023/04/18 03:04:19;;;;;;;15.70;10.40;;;;;;;8.20;100.00;100064.72;4988705;28;20134;-72
2023/04/18 03:06:44;;;;;;;18.92;11.48;;;;;;;8.21;100.00;100042.06;5019902;28;20050;-72
2023/04/18 03:09:10;;;;;;;21.77;12.00;;;;;;;8.06;100.00;100050.72;5006554;28;20037;-72
2023/04/18 03:11:35;;;;;;;16.88;11.20;;;;;;;7.12;100.00;99891.00;5007719;28;20482;-73
2023/04/18 03:14:01;;;;;;;15.55;10.77;;;;;;;7.32;100.00;99927.63;5007907;28;20045;-73
2023/04/18 03:16:26;;;;;;;15.40;11.82;;;;;;;7.82;100.00;100062.81;5007760;28;20041;-73
2023/04/18 03:18:52;;;;;;;16.75;11.75;;;;;;;6.90;100.00;99907.38;5008052;28;20407;-73
2023/04/18 03:21:17;;;;;;;14.68;10.88;;;;;;;7.10;100.00;99957.94;4995715;28;20046;-73
2023/04/18 03:23:43;;;;;;;16.15;10.60;;;;;;;7.25;100.00;99922.38;5008344;28;20045;-73
2023/04/18 03:26:08;;;;;;;17.10;10.80;;;;;;;7.36;100.00;99992.03;5007683;28;20119;-73
2023/04/18 03:28:34;;;;;;;16.08;11.77;;;;;;;7.67;100.00;100022.66;5008052;28;20056;-73
2023/04/18 03:30:59;;;;;;;16.55;10.40;;;;;;;6.88;100.00;99909.09;5007783;28;20038;-74
2023/04/18 03:33:25;;;;;;;12.50;10.02;;;;;;;8.00;100.00;100054.16;5008099;28;20034;-73
2023/04/18 03:35:50;;;;;;;16.38;10.02;;;;;;;7.62;100.00;99959.97;5006897;28;20041;-73
2023/04/18 03:38:16;;;;;;;15.70;9.95;;;;;;;7.05;100.00;99940.53;5007953;28;20033;-73
2023/04/18 03:40:43;;;;;;;12.65;10.10;;;;;;;7.66;100.00;100037.47;5007592;28;20041;-74
2023/04/18 03:43:09;;;;;;;15.82;12.48;;;;;;;7.03;100.00;99942.25;5007128;28;20034;-74
2023/04/18 03:45:35;;;;;;;17.15;11.02;;;;;;;7.42;100.00;100016.41;5007602;28;20068;-73
2023/04/18 03:48:00;;;;;;;15.55;9.68;;;;;;;6.98;100.00;99917.00;5007358;28;20475;-73
2023/04/18 03:50:26;;;;;;;15.05;11.07;;;;;;;7.46;100.00;100006.00;4998380;28;20073;-73
2023/04/18 03:52:51;;;;;;;15.57;10.25;;;;;;;7.67;100.00;100060.09;4987813;28;20049;-73
2023/04/18 03:55:18;;;;;;;17.58;11.48;;;;;;;7.75;100.00;100042.75;4987664;28;20057;-73
2023/04/18 03:57:44;;;;;;;12.85;6.95;;;;;;;7.05;100.00;99904.00;4987743;28;20038;-72
2023/04/18 04:00:11;;;;;;;12.13;9.90;;;;;;;7.17;100.00;99917.97;4987876;28;20038;-73
2023/04/18 04:02:37;;;;;;;13.70;10.80;;;;;;;8.07;100.00;100052.44;4988049;28;20197;-74
2023/04/18 04:05:03;;;;;;;13.43;9.55;;;;;;;7.68;100.00;99993.97;4993886;28;20430;-74
2023/04/18 04:07:30;;;;;;;14.88;10.95;;;;;;;7.36;100.00;99913.72;5017828;28;20543;-73
2023/04/18 04:09:57;;;;;;;12.02;9.50;;;;;;;8.14;100.00;100038.53;5005533;28;20062;-75
2023/04/18 04:12:22;;;;;;;16.08;8.95;;;;;;;7.31;100.00;99930.25;5007025;28;20038;-75
2023/04/18 04:14:48;;;;;;;14.18;9.15;;;;;;;7.78;100.00;100029.69;5007621;28;20060;-73
2023/04/18 04:17:13;;;;;;;14.80;9.98;;;;;;;7.67;100.00;99978.28;5007010;28;20054;-72
2023/04/18 04:19:39;;;;;;;11.32;8.77;;;;;;;7.54;100.00;100011.28;5003919;28;20193;-72
2023/04/18 04:22:04;;;;;;;10.75;9.10;;;;;;;7.44;100.00;99984.22;4998350;28;20128;-74
2023/04/18 04:24:32;;;;;;;26.35;15.68;;;;;;;8.33;100.00;100135.34;5006868;28;20104;-74
2023/04/18 04:26:58;;;;;;;14.20;9.65;;;;;;;8.13;100.00;100093.44;5006369;28;20029;-74
2023/04/18 04:29:25;;;;;;;15.02;8.77;;;;;;;7.83;100.00;100077.59;5007588;28;20029;-74
2023/04/18 04:31:50;;;;;;;18.58;9.38;;;;;;;7.72;100.00;100049.66;5006602;28;20045;-71
2023/04/18 04:34:16;;;;;;;16.98;9.85;;;;;;;8.47;100.00;100157.22;5006551;28;20037;-73
2023/04/18 04:36:42;;;;;;;16.95;8.32;;;;;;;8.53;100.00;100143.31;5006841;28;20565;-74
2023/04/18 04:39:08;;;;;;;15.80;9.23;;;;;;;8.55;100.00;100137.22;5006828;28;20030;-72
2023/04/18 04:41:36;;;;;;;18.25;9.07;;;;;;;7.89;100.00;100032.38;5007312;28;20133;-73
2023/04/18 04:44:03;;;;;;;16.40;8.50;;;;;;;8.63;100.00;100147.69;5006491;28;20046;-73
2023/04/18 04:46:29;;;;;;;15.55;8.95;;;;;;;8.42;100.00;100127.56;5006375;28;20046;-74
2023/04/18 04:48:55;;;;;;;11.70;8.80;;;;;;;8.56;100.00;100149.41;5009637;28;20498;-73
2023/04/18 04:51:21;;;;;;;14.88;9.63;;;;;;;8.11;100.00;100079.47;4993802;28;20039;-73
2023/04/18 04:53:46;;;;;;;16.08;8.05;;;;;;;8.73;100.00;100166.91;4991073;28;20045;-73
2023/04/18 04:56:12;;;;;;;9.98;8.95;;;;;;;7.66;100.00;100099.25;4990405;28;20133;-75
2023/04/18 04:58:37;;;;;;;9.95;6.28;;;;;;;7.76;100.00;100155.91;4990532;28;20096;-74
2023/04/18 05:01:03;;;;;;;11.52;7.07;;;;;;;8.02;100.00;100122.09;4990702;28;20074;-74
2023/04/18 05:03:28;;;;;;;10.95;6.65;;;;;;;7.39;100.00;100091.22;4990844;28;20050;-73
2023/04/18 05:05:54;;;;;;;9.60;6.70;;;;;;;7.54;100.00;100108.75;5018121;28;20133;-73
2023/04/18 05:08:19;;;;;;;14.15;7.10;;;;;;;7.50;100.00;100109.59;5030325;28;20048;-74
2023/04/18 05:10:46;;;;;;;12.35;7.72;;;;;;;7.94;100.00;100203.06;5024565;28;20526;-74
2023/04/18 05:13:13;;;;;;;12.18;6.63;;;;;;;8.40;100.00;100233.88;5009530;28;20052;-75
2023/04/18 05:15:38;;;;;;;14.73;7.60;;;;;;;7.28;100.00;100073.72;5009337;28;20167;-73
2023/04/18 05:18:04;;;;;;;12.32;7.72;;;;;;;8.25;100.00;100238.09;5009631;28;20505;-74
2023/04/18 05:20:32;;;;;;;10.27;6.45;;;;;;;7.98;100.00;100217.91;5000496;28;20769;-73
2023/04/18 05:22:57;;;;;;;11.00;6.38;;;;;;;7.97;100.00;100223.97;5039092;28;20525;-75
2023/04/18 05:25:23;;;;;;;13.80;7.50;;;;;;;8.28;100.00;100247.72;5009528;28;20046;-73
2023/04/18 05:27:49;;;;;;;22.23;8.18;;;;;;;8.38;100.00;100248.63;5009561;28;20088;-73
2023/04/18 05:30:15;;;;;;;16.38;8.57;;;;;;;7.57;100.00;100100.94;5009271;28;20042;-73
2023/04/18 05:32:40;;;;;;;11.65;7.47;;;;;;;8.58;100.00;100252.28;5008243;28;20034;-74
2023/04/18 05:35:07;;;;;;;12.75;6.57;;;;;;;8.24;100.00;100168.41;5009332;28;20049;-74
2023/04/18 05:37:32;;;;;;;10.90;7.88;;;;;;;8.15;100.00;100117.84;5009443;28;20049;-73
2023/04/18 05:39:58;;;;;;;14.75;6.88;;;;;;;8.53;100.00;100246.16;5009532;28;20096;-73
2023/04/18 05:42:24;;;;;;;13.43;8.85;;;;;;;7.71;100.00;100129.75;5009614;28;20046;-73
2023/04/18 05:44:49;;;;;;;11.63;8.27;;;;;;;8.70;100.00;100287.22;5009689;28;20116;-73
2023/04/18 05:47:16;;;;;;;9.43;7.30;;;;;;;8.88;100.00;100296.03;5009991;28;20042;-73
2023/04/18 05:49:41;;;;;;;19.50;7.22;;;;;;;8.82;100.00;100220.13;5005743;28;20049;-74
2023/04/18 05:52:07;;;;;;;10.88;7.03;;;;;;;8.36;100.00;100159.75;4989712;28;20406;-73
2023/04/18 05:54:32;;;;;;;18.95;8.02;;;;;;;8.77;100.00;100276.78;5004506;28;20106;-74
2023/04/18 05:56:59;;;;;;;18.58;8.50;;;;;;;8.69;100.00;100215.72;4989233;28;20045;-73
2023/04/18 05:59:25;;;;;;;9.98;7.68;;;;;;;9.28;100.00;100305.81;4989092;28;20042;-74
2023/04/18 06:01:51;;;;;;;16.27;8.27;;;;;;;9.29;100.00;100291.84;5006933;28;20061;-73
2023/04/18 06:04:20;;;;;;;12.70;7.18;;;;;;;9.54;100.00;100300.66;5008745;28;20049;-75
2023/04/18 06:06:45;;;;;;;13.35;7.20;;;;;;;8.72;100.00;100180.88;5019329;28;20058;-73
2023/04/18 06:09:11;;;;;;;20.02;8.27;;;;;;;9.60;100.00;100323.34;5008184;28;20185;-75
2023/04/18 06:11:36;;;;;;;22.77;9.52;;;;;;;9.68;100.00;100295.44;5009328;28;20038;-73
2023/04/18 06:14:02;;;;;;;23.92;8.18;;;;;;;9.20;100.00;100328.44;5008589;28;20496;-72
2023/04/18 06:16:28;;;;;;;16.13;8.43;;;;;;;9.47;100.00;100325.94;5007265;28;20513;-73
2023/04/18 06:18:54;;;;;;;13.18;7.95;;;;;;;8.32;100.00;100172.81;5009062;28;20048;-73
2023/04/18 06:21:20;;;;;;;15.27;8.18;;;;;;;9.30;100.00;100304.06;4995974;28;20449;-73
2023/04/18 06:23:46;;;;;;;14.98;8.50;;;;;;;8.52;100.00;100163.38;5009077;28;20069;-75
2023/04/18 06:26:12;;;;;;;17.02;10.07;;;;;;;9.37;100.00;100290.13;5006940;28;20565;-74
2023/04/18 06:28:38;;;;;;;14.88;7.70;;;;;;;9.11;100.00;100317.94;5008759;28;20056;-72
2023/04/18 06:31:03;;;;;;;12.65;8.85;;;;;;;8.43;100.00;100184.22;5008224;28;20042;-73
2023/04/18 06:33:29;;;;;;;12.43;7.50;;;;;;;9.44;100.00;100306.75;5008178;28;20040;-73
2023/04/18 06:35:55;;;;;;;17.98;8.52;;;;;;;9.04;100.00;100249.88;5018792;28;20025;-72
2023/04/18 06:38:21;;;;;;;9.85;7.22;;;;;;;9.85;100.00;100327.78;5014086;28;20121;-73
2023/04/18 06:40:46;;;;;;;12.68;7.95;;;;;;;9.68;100.00;100345.22;5007792;28;20585;-73
2023/04/18 06:43:12;;;;;;;10.95;6.13;;;;;;;9.77;100.00;100340.00;5008398;28;20449;-72
2023/04/18 06:45:37;;;;;;;14.57;7.07;;;;;;;9.86;100.00;100312.94;5008275;28;20042;-73
2023/04/18 06:48:03;;;;;;;15.75;6.70;;;;;;;9.31;100.00;100222.03;5008168;28;20030;-73
2023/04/18 06:50:28;;;;;;;26.92;8.00;;;;;;;9.40;100.00;100249.97;4999265;28;20496;-72
2023/04/18 06:52:54;;;;;;;10.88;7.65;;;;;;;9.48;100.00;100243.91;4988166;28;20042;-72
2023/04/18 06:55:20;;;;;;;13.43;7.75;;;;;;;9.29;100.00;100271.78;4988771;28;20074;-72
2023/04/18 06:57:45;;;;;;;12.95;7.72;;;;;;;9.21;100.00;100251.69;5003294;28;20046;-72
2023/04/18 07:00:11;;;;;;;16.00;7.03;;;;;;;9.15;100.00;100242.06;5007788;28;20046;-73
2023/04/18 07:02:38;;;;;;;16.02;7.22;;;;;;;9.48;100.00;100269.19;5008646;28;20045;-73
2023/04/18 07:05:05;;;;;;;13.70;6.80;;;;;;;9.72;100.00;100366.19;5009075;28;20810;-74
2023/04/18 07:07:31;;;;;;;8.07;5.88;;;;;;;9.71;100.00;100350.44;5018567;28;20052;-75
2023/04/18 07:09:57;;;;;;;11.70;7.13;;;;;;;9.77;100.00;100388.91;5008067;28;20121;-74
2023/04/18 07:12:22;;;;;;;18.40;10.70;;;;;;;10.06;100.00;100402.94;5007386;28;20600;-74
2023/04/18 07:14:48;;;;;;;15.60;8.13;;;;;;;9.75;100.00;100314.66;5008304;28;20026;-74
2023/04/18 07:17:13;;;;;;;10.70;7.15;;;;;;;10.11;100.00;100374.13;5007920;28;20046;-73
2023/04/18 07:19:40;;;;;;;12.90;7.13;;;;;;;9.48;100.00;100264.84;5004625;28;20103;-73
2023/04/18 07:22:05;;;;;;;16.45;8.70;;;;;;;10.31;100.00;100451.09;4998918;28;20115;-74
2023/04/18 07:24:31;;;;;;;15.43;7.25;;;;;;;10.42;100.00;100430.16;5007159;28;20053;-73
2023/04/18 07:26:56;;;;;;;11.35;5.90;;;;;;;10.82;100.00;100447.66;5007644;28;20037;-73
2023/04/18 07:29:21;;;;;;;10.02;6.05;;;;;;;10.73;100.00;100422.28;5008033;28;20034;-74
2023/04/18 07:31:47;;;;;;;12.48;6.65;;;;;;;10.55;100.00;100442.38;5007168;28;20505;-73
2023/04/18 07:34:13;;;;;;;17.75;6.75;;;;;;;10.67;100.00;100431.00;5007290;28;20125;-73
2023/04/18 07:36:39;;;;;;;12.35;7.28;;;;;;;10.81;100.00;100453.75;5023092;28;20046;-75
2023/04/18 07:39:05;;;;;;;13.45;6.82;;;;;;;9.90;100.00;100341.78;5006961;28;20034;-74
2023/04/18 07:41:31;;;;;;;16.15;7.35;;;;;;;10.23;100.00;100387.25;5007919;28;20504;-73
2023/04/18 07:43:56;;;;;;;13.77;6.45;;;;;;;10.23;100.00;100375.88;5005232;28;20050;-73
2023/04/18 07:46:22;;;;;;;12.30;5.55;;;;;;;10.28;100.00;100361.94;5005617;28;20073;-73
2023/04/18 07:48:47;;;;;;;14.05;5.70;;;;;;;10.66;100.00;100468.63;5007127;28;20149;-74
2023/04/18 07:51:13;;;;;;;7.05;4.63;;;;;;;10.27;100.00;100438.81;5004668;28;20076;-73
2023/04/18 07:53:39;;;;;;;15.65;6.07;;;;;;;10.93;100.00;100494.03;5007570;28;20036;-74
2023/04/18 07:56:05;;;;;;;14.77;5.93;;;;;;;11.00;100.00;100502.75;5006806;28;20050;-74
2023/04/18 07:58:33;;;;;;;15.05;7.15;;;;;;;11.13;100.00;100494.00;5006983;28;20443;-73
2023/04/18 08:00:58;;;;;;;12.63;6.30;;;;;;;10.73;100.00;100467.75;5007306;28;20045;-74
2023/04/18 08:03:24;;;;;;;9.02;5.28;;;;;;;10.99;100.00;100507.13;5006869;28;20445;-72
2023/04/18 08:05:50;;;;;;;8.45;4.93;;;;;;;11.19;100.00;100498.34;5014513;28;20481;-74
2023/04/18 08:08:16;;;;;;;18.08;6.70;;;;;;;10.51;100.00;100414.41;5011845;28;20412;-71
2023/04/18 08:10:41;;;;;;;12.32;5.93;;;;;;;11.03;100.00;100510.66;5006775;28;20034;-73
2023/04/18 08:13:07;;;;;;;12.65;5.13;;;;;;;11.44;100.00;100511.47;5006686;28;20141;-73
2023/04/18 08:15:33;;;;;;;13.80;5.53;;;;;;;10.09;100.00;100357.50;5006931;28;20053;-72
2023/04/18 08:17:59;;;;;;;18.90;4.95;;;;;;;11.06;100.00;100467.75;5006386;28;20033;-72
2023/04/18 08:20:25;;;;;;;11.38;4.60;;;;;;;11.74;100.00;100510.50;5000337;28;20037;-74
2023/04/18 08:22:51;;;;;;;23.92;6.22;;;;;;;10.71;100.00;100397.78;5006771;28;20050;-74
2023/04/18 08:25:16;;;;;;;8.60;4.50;;;;;;;10.69;100.00;100389.03;5011839;28;20414;-74
2023/04/18 08:27:42;;;;;;;11.10;5.63;;;;;;;10.96;100.00;100381.13;5011607;28;20109;-74
2023/04/18 08:30:09;;;;;;;12.20;5.78;;;;;;;11.43;100.00;100416.00;5012029;28;20045;-74
2023/04/18 08:32:35;;;;;;;10.13;4.55;;;;;;;11.48;100.00;100402.84;5012114;28;20137;-74
2023/04/18 08:35:02;;;;;;;10.25;6.47;;;;;;;11.13;100.00;100395.97;5015190;28;20172;-74
2023/04/18 08:37:29;;;;;;;15.43;5.63;;;;;;;11.90;100.00;100514.88;5025184;28;20049;-73
2023/04/18 08:39:54;;;;;;;9.93;6.32;;;;;;;11.90;100.00;100493.84;5010785;28;20390;-72
2023/04/18 08:42:21;;;;;;;8.63;5.10;;;;;;;11.44;100.00;100479.94;5010424;28;20041;-72
2023/04/18 08:44:47;;;;;;;17.40;6.60;;;;;;;10.43;100.00;100370.69;5010808;28;20038;-71
2023/04/18 08:47:13;;;;;;;13.85;5.70;;;;;;;10.27;100.00;100270.13;5008506;28;20068;-74
2023/04/18 08:49:39;;;;;;;16.20;6.38;;;;;;;11.07;100.00;100372.34;5008476;28;20370;-74
2023/04/18 08:52:15;;;;;;;7.88;6.07;;;;;;;10.97;100.00;100393.34;4990527;28;20137;-73
2023/04/18 08:54:43;;;;;;;9.70;6.63;;;;;;;11.60;100.00;100481.66;4990625;28;20042;-73
2023/04/18 08:57:11;;;;;;;10.65;5.18;;;;;;;11.79;100.00;100488.56;4990199;28;20581;-73
2023/04/18 08:59:38;;;;;;;13.55;6.30;;;;;;;12.16;100.00;100503.38;4990718;28;20034;-74
2023/04/18 09:02:07;;;;;;;16.17;6.72;;;;;;;11.84;100.00;100363.22;4990292;28;20065;-73
2023/04/18 09:04:39;;;;;;;11.57;4.95;;;;;;;12.37;100.00;100510.28;5007225;28;20097;-74
2023/04/18 09:07:13;;;;;;;19.95;6.05;;;;;;;12.21;100.00;100517.38;5021527;28;20052;-74
2023/04/18 09:09:41;;;;;;;7.00;4.45;;;;;;;11.80;100.00;100492.97;5009381;28;20470;-73
2023/04/18 09:12:08;;;;;;;12.15;5.88;;;;;;;11.08;100.00;100392.47;5009285;28;20129;-73
2023/04/18 09:14:41;;;;;;;14.07;5.68;;;;;;;12.00;100.00;100476.25;5009723;28;20101;-73
2023/04/18 09:17:07;;;;;;;15.68;5.80;;;;;;;10.99;100.00;100314.59;5007670;28;20402;-73
2023/04/18 09:19:33;;;;;;;9.10;4.95;;;;;;;11.57;100.00;100382.66;5008883;28;20080;-73
2023/04/18 09:22:01;;;;;;;9.13;4.80;;;;;;;12.20;100.00;100511.22;5000205;28;20038;-73
2023/04/18 09:24:28;;;;;;;9.80;4.30;;;;;;;11.52;100.00;100428.22;5009712;28;20050;-72
2023/04/18 09:26:55;;;;;;;9.05;5.38;;;;;;;11.52;100.00;100407.19;5009349;28;20066;-74
2023/04/18 09:29:45;;;;;;;17.70;7.47;;;;;;;12.30;100.00;100503.28;5010178;28;20513;-73
2023/04/18 09:32:25;;;;;;;17.33;5.93;;;;;;;12.49;100.00;100496.16;5009311;28;20089;-72
2023/04/18 09:34:57;;;;;;;18.30;5.97;;;;;;;12.51;100.00;100494.41;5009347;28;20438;-73
2023/04/18 09:37:25;;;;;;;11.38;6.25;;;;;;;11.83;100.00;100379.91;5009224;28;20042;-73
2023/04/18 09:39:51;;;;;;;7.25;5.25;;;;;;;12.78;100.00;100499.47;5009313;28;20074;-72
2023/04/18 09:42:18;;;;;;;13.50;5.65;;;;;;;12.02;100.00;100383.31;5009124;28;20072;-73
2023/04/18 09:45:06;;;;;;;8.45;4.75;;;;;;;13.80;100.00;100498.50;5009707;28;20478;-74
2023/04/18 09:47:35;;;;;;;14.57;6.22;;;;;;;13.33;100.00;100482.31;5008640;28;20065;-73
2023/04/18 09:50:06;;;;;;;15.02;5.30;;;;;;;14.12;100.00;100485.78;5004066;28;20074;-74
2023/04/18 09:52:34;;;;;;;15.98;5.47;;;;;;;13.89;100.00;100406.94;4988880;28;20471;-73
2023/04/18 09:55:02;;;;;;;7.72;4.50;;;;;;;14.71;100.00;100443.56;4989299;28;20054;-73
2023/04/18 09:57:29;;;;;;;9.15;4.63;;;;;;;13.57;100.00;100380.13;5003850;28;20490;-74
2023/04/18 10:00:22;;;;;;;8.70;4.25;;;;;;;15.24;100.00;100514.00;4989278;28;20041;-73
2023/04/18 10:02:57;;;;;;;21.10;5.70;;;;;;;14.96;100.00;100390.28;4989214;28;20057;-75
2023/04/18 10:05:30;;;;;;;16.95;5.30;;;;;;;14.01;100.00;100487.69;5001359;28;20069;-72
2023/04/18 10:07:56;;;;;;;11.07;4.57;;;;;;;15.22;100.00;100515.81;5016018;28;20045;-73
2023/04/18 10:10:22;;;;;;;6.60;3.95;;;;;;;14.77;100.00;100512.16;5008817;28;20386;-73
2023/04/18 10:12:51;;;;;;;18.90;4.53;;;;;;;16.14;100.00;100522.91;5008148;28;20493;-72
2023/04/18 10:15:20;;;;;;;10.07;4.43;;;;;;;15.35;100.00;100401.00;5008514;28;20046;-73
2023/04/18 10:17:57;;;;;;;11.20;5.03;;;;;;;14.41;100.00;100415.84;5008795;28;20069;-73
2023/04/18 10:20:25;;;;;;;10.07;3.85;;;;;;;13.86;100.00;100395.53;5001546;28;20045;-72
2023/04/18 10:22:52;;;;;;;11.70;4.05;;;;;;;15.65;100.00;100515.91;5005650;28;20148;-73
2023/04/18 10:25:32;;;;;;;10.23;3.75;;;;;;;15.35;100.00;100517.34;5008243;28;20041;-74
2023/04/18 10:28:00;;;;;;;11.60;4.45;;;;;;;15.02;100.00;100503.81;5007879;28;20042;-75
2023/04/18 10:30:40;;;;;;;12.48;4.88;;;;;;;15.30;100.00;100416.09;5008586;28;20110;-74
2023/04/18 10:33:29;;;;;;;10.98;3.85;;;;;;;16.51;93.09;100510.63;4992529;28;20116;-74
2023/04/18 10:35:58;;;;;;;6.55;3.25;;;;;;;17.25;91.19;100522.97;5008285;28;20173;-72
2023/04/18 10:38:23;;;;;;;15.45;4.78;;;;;;;16.78;86.15;100403.09;5008337;28;20033;-73
2023/04/18 10:40:49;;;;;;;8.55;4.65;;;;;;;16.35;86.98;100524.22;5007853;28;20045;-73
2023/04/18 10:43:14;;;;;;;6.28;4.30;;;;;;;15.08;100.00;100376.00;5006021;28;20042;-73
2023/04/18 10:45:40;;;;;;;9.80;4.63;;;;;;;14.94;100.00;100385.06;5007181;28;20108;-74
2023/04/18 10:48:23;;;;;;;14.27;4.55;;;;;;;16.55;100.00;100388.66;5007396;28;20037;-73
2023/04/18 10:51:19;;;;;;;7.80;4.53;;;;;;;14.78;100.00;100500.69;4997691;28;20038;-72
2023/04/18 10:53:53;;;;;;;7.90;3.95;;;;;;;14.74;100.00;100495.47;4982923;28;20496;-73
2023/04/18 10:56:20;;;;;;;16.63;4.82;;;;;;;13.25;100.00;100376.97;4969396;28;20130;-72
2023/04/18 10:58:50;;;;;;;10.32;4.05;;;;;;;15.70;100.00;100468.19;4968635;28;20403;-73
2023/04/18 11:01:24;;;;;;;12.75;3.97;;;;;;;15.45;97.15;100513.63;4978957;28;20050;-73
2023/04/18 11:03:50;;;;;;;13.32;3.85;;;;;;;14.44;100.00;100475.66;4988244;28;20042;-73
2023/04/18 11:06:16;;;;;;;15.68;4.88;;;;;;;14.78;100.00;100479.56;5015708;28;20040;-73
2023/04/18 11:08:42;;;;;;;14.20;5.13;;;;;;;14.96;100.00;100490.69;5008730;28;20048;-73
2023/04/18 11:11:10;;;;;;;10.90;4.05;;;;;;;13.76;100.00;100480.97;5007133;28;20042;-73
2023/04/18 11:13:36;;;;;;;10.00;3.45;;;;;;;13.99;100.00;100451.66;5007345;28;20596;-73